createdAt,value
2022-10-28T00:00:25.542Z,24.27
2022-10-28T00:03:35.205Z,22.43
2022-10-28T00:06:40.804Z,21.70
2022-10-28T00:09:47.240Z,21.83
2022-10-28T00:12:52.824Z,17.77
2022-10-28T00:15:59.350Z,17.87
2022-10-28T00:19:13.404Z,19.13
2022-10-28T00:22:19.852Z,17.53
2022-10-28T00:25:25.479Z,20.80
2022-10-28T00:28:32.463Z,18.00
2022-10-28T00:31:38.966Z,16.70
2022-10-28T00:34:48.197Z,16.27
2022-10-28T00:37:56.209Z,18.17
2022-10-28T00:41:03.357Z,19.07
2022-10-28T00:44:42.372Z,19.43
2022-10-28T00:47:56.089Z,18.80
2022-10-28T00:51:06.517Z,17.70
2022-10-28T00:54:14.989Z,17.93
2022-10-28T00:57:25.384Z,18.00
2022-10-28T01:00:32.055Z,20.67
2022-10-28T01:03:39.839Z,22.57
2022-10-28T01:06:49.898Z,18.70
2022-10-28T01:09:55.529Z,21.83
2022-10-28T01:13:13.121Z,21.63
2022-10-28T01:16:31.791Z,19.70
2022-10-28T01:20:03.361Z,17.43
2022-10-28T01:23:18.153Z,19.33
2022-10-28T01:26:44.366Z,18.63
2022-10-28T01:30:11.230Z,17.70
2022-10-28T01:33:29.318Z,18.47
2022-10-28T01:36:42.041Z,22.97
2022-10-28T01:39:55.522Z,26.10
2022-10-28T01:43:12.199Z,24.07
2022-10-28T01:46:23.903Z,27.17
2022-10-28T01:49:39.826Z,24.23
2022-10-28T01:52:48.358Z,26.90
2022-10-28T01:55:58.182Z,24.60
2022-10-28T01:59:10.445Z,24.77
2022-10-28T02:02:17.980Z,30.63
2022-10-28T02:05:42.887Z,30.37
2022-10-28T02:09:18.147Z,26.77
2022-10-28T02:12:29.876Z,25.77
2022-10-28T02:15:47.150Z,25.30
2022-10-28T02:19:03.362Z,22.90
2022-10-28T02:22:21.678Z,24.33
2022-10-28T02:25:35.625Z,23.63
2022-10-28T02:28:46.040Z,28.87
2022-10-28T02:31:55.248Z,23.60
2022-10-28T02:35:03.867Z,24.13
2022-10-28T02:38:18.716Z,29.57
2022-10-28T02:41:29.932Z,22.10
2022-10-28T02:44:41.602Z,24.67
2022-10-28T02:47:50.635Z,20.33
2022-10-28T02:51:01.086Z,21.63
2022-10-28T02:54:14.503Z,21.87
2022-10-28T02:57:24.804Z,22.30
2022-10-28T03:00:30.479Z,19.50
2022-10-28T03:03:37.138Z,21.03
2022-10-28T03:06:42.990Z,19.93
2022-10-28T03:09:52.442Z,18.63
2022-10-28T03:12:58.105Z,22.60
2022-10-28T03:16:06.567Z,22.77
2022-10-28T03:19:12.203Z,20.20
2022-10-28T03:22:18.772Z,18.37
2022-10-28T03:25:27.912Z,22.53
2022-10-28T03:28:34.362Z,15.27
2022-10-28T03:31:39.916Z,16.90
2022-10-28T03:34:47.539Z,17.73
2022-10-28T03:37:53.120Z,14.83
2022-10-28T03:41:03.326Z,15.77
2022-10-28T03:44:09.352Z,14.93
2022-10-28T03:47:15.808Z,15.57
2022-10-28T03:50:21.759Z,15.70
2022-10-28T03:53:31.144Z,14.33
2022-10-28T03:56:40.735Z,15.70
2022-10-28T03:59:47.206Z,16.53
2022-10-28T04:02:54.051Z,12.80
2022-10-28T04:06:00.694Z,13.10
2022-10-28T04:09:08.205Z,13.47
2022-10-28T04:12:17.465Z,13.87
2022-10-28T04:15:23.103Z,12.50
2022-10-28T04:18:29.839Z,12.40
2022-10-28T04:21:35.579Z,15.40
2022-10-28T04:24:42.024Z,12.87
2022-10-28T04:27:51.942Z,15.00
2022-10-28T04:30:58.633Z,13.13
2022-10-28T04:34:06.618Z,19.80
2022-10-28T04:37:16.930Z,17.93
2022-10-28T04:40:23.845Z,18.43
2022-10-28T04:43:33.080Z,18.10
2022-10-28T04:46:38.745Z,21.97
2022-10-28T04:49:45.497Z,18.50
2022-10-28T04:52:51.375Z,19.07
2022-10-28T04:56:00.720Z,13.37
2022-10-28T04:59:10.852Z,10.97
2022-10-28T05:02:17.788Z,13.40
2022-10-28T05:05:23.809Z,13.53
2022-10-28T05:08:31.377Z,13.70
2022-10-28T05:11:37.334Z,15.13
2022-10-28T05:14:48.994Z,15.17
2022-10-28T05:17:56.869Z,15.50
2022-10-28T05:21:03.599Z,14.13
2022-10-28T05:24:09.922Z,16.20
2022-10-28T05:27:16.581Z,17.67
2022-10-28T05:30:25.374Z,17.57
2022-10-28T05:33:33.785Z,20.73
2022-10-28T05:36:39.438Z,18.53
2022-10-28T05:39:48.391Z,18.80
2022-10-28T05:42:54.419Z,21.83
2022-10-28T05:46:04.020Z,20.97
2022-10-28T05:49:11.752Z,23.43
2022-10-28T05:52:18.250Z,23.20
2022-10-28T05:55:28.414Z,18.13
2022-10-28T05:58:35.017Z,19.43
2022-10-28T06:01:44.211Z,17.33
2022-10-28T06:04:50.972Z,16.73
2022-10-28T06:07:56.628Z,19.57
2022-10-28T06:11:02.096Z,16.10
2022-10-28T06:14:07.784Z,15.17
2022-10-28T06:17:17.113Z,17.17
2022-10-28T06:20:23.792Z,17.83
2022-10-28T06:23:30.272Z,17.67
2022-10-28T06:26:36.859Z,19.53
2022-10-28T06:29:43.306Z,18.57
2022-10-28T06:32:51.732Z,18.60
2022-10-28T06:35:58.726Z,23.97
2022-10-28T06:39:06.556Z,25.97
2022-10-28T06:42:13.160Z,22.50
2022-10-28T06:45:18.808Z,27.90
2022-10-28T06:48:29.560Z,20.07
2022-10-28T06:51:35.449Z,15.23
2022-10-28T06:55:14.055Z,13.60
2022-10-28T06:58:19.649Z,14.07
2022-10-28T07:01:26.346Z,13.83
2022-10-28T07:04:36.862Z,14.50
2022-10-28T07:07:43.621Z,15.10
2022-10-28T07:10:57.839Z,14.50
2022-10-28T07:14:07.872Z,13.07
2022-10-28T07:17:13.498Z,12.40
2022-10-28T07:20:22.753Z,13.90
2022-10-28T07:23:28.472Z,12.70
2022-10-28T07:26:34.935Z,13.00
2022-10-28T07:29:40.609Z,15.37
2022-10-28T07:32:47.108Z,11.63
2022-10-28T07:35:55.494Z,11.63
2022-10-28T07:39:04.005Z,10.40
2022-10-28T07:42:09.689Z,11.07
2022-10-28T07:45:16.202Z,11.37
2022-10-28T07:48:21.860Z,9.27
2022-10-28T07:51:31.505Z,9.43
2022-10-28T07:54:37.182Z,9.70
2022-10-28T07:57:43.913Z,8.97
2022-10-28T08:00:50.045Z,7.97
2022-10-28T08:03:56.580Z,7.90
2022-10-28T08:07:07.408Z,8.27
2022-10-28T08:10:13.879Z,8.13
2022-10-28T08:13:19.533Z,7.00
2022-10-28T08:16:29.184Z,6.27
2022-10-28T08:19:35.100Z,7.13
2022-10-28T08:22:44.669Z,5.80
2022-10-28T08:25:53.508Z,5.20
2022-10-28T08:29:13.660Z,4.50
2022-10-28T08:32:19.423Z,4.83
2022-10-28T08:35:28.585Z,5.13
2022-10-28T08:38:39.570Z,6.30
2022-10-28T08:41:55.586Z,4.20
2022-10-28T08:45:19.946Z,6.20
2022-10-28T08:48:33.269Z,6.10
2022-10-28T08:51:44.040Z,5.23
2022-10-28T08:54:56.683Z,4.10
2022-10-28T08:58:08.461Z,6.53
2022-10-28T09:01:23.361Z,4.67
2022-10-28T09:04:38.910Z,5.30
2022-10-28T09:07:45.756Z,5.07
2022-10-28T09:11:07.038Z,4.87
2022-10-28T09:14:31.855Z,5.77
2022-10-28T09:17:47.475Z,5.33
2022-10-28T09:21:12.631Z,5.53
2022-10-28T09:24:45.858Z,5.40
2022-10-28T09:28:23.219Z,4.90
2022-10-28T09:31:46.938Z,5.73
2022-10-28T09:35:12.121Z,5.90
2022-10-28T09:38:38.750Z,4.80
2022-10-28T09:42:04.014Z,5.17
2022-10-28T09:45:34.129Z,4.90
2022-10-28T09:49:04.080Z,4.87
2022-10-28T09:52:29.501Z,5.17
2022-10-28T09:55:53.493Z,4.60
2022-10-28T09:59:18.614Z,4.37
2022-10-28T10:03:00.550Z,4.10
2022-10-28T10:06:27.168Z,4.33
2022-10-28T10:09:48.519Z,4.13
2022-10-28T10:13:12.047Z,3.67
2022-10-28T10:16:41.740Z,3.63
2022-10-28T10:20:10.992Z,3.70
2022-10-28T10:23:34.435Z,3.70
2022-10-28T10:26:56.229Z,5.47
2022-10-28T10:30:21.782Z,3.27
2022-10-28T10:33:31.414Z,5.07
2022-10-28T10:37:00.059Z,3.40
2022-10-28T10:40:31.284Z,3.07
2022-10-28T10:43:55.620Z,3.60
2022-10-28T10:47:22.927Z,4.63
2022-10-28T10:53:56.006Z,3.30
2022-10-28T10:57:10.267Z,3.20
2022-10-28T11:00:20.561Z,2.87
2022-10-28T11:03:30.529Z,3.20
2022-10-28T11:06:41.903Z,3.47
2022-10-28T11:14:40.009Z,3.10
2022-10-28T11:17:59.098Z,2.83
2022-10-28T11:21:10.444Z,3.27
2022-10-28T11:24:33.365Z,2.90
2022-10-28T11:27:57.451Z,4.27
2022-10-28T11:31:27.921Z,3.53
2022-10-28T11:34:49.691Z,3.70
2022-10-28T11:38:09.458Z,2.80
2022-10-28T11:41:23.814Z,1.90
2022-10-28T11:44:45.188Z,2.10
2022-10-28T11:48:08.026Z,2.57
2022-10-28T11:51:37.882Z,2.73
2022-10-28T11:54:57.889Z,1.80
2022-10-28T11:58:16.192Z,2.60
2022-10-28T12:01:47.866Z,2.20
2022-10-28T12:05:06.234Z,2.17
2022-10-28T12:08:34.356Z,3.30
2022-10-28T12:11:51.015Z,2.50
2022-10-28T12:15:07.086Z,3.80
2022-10-28T12:18:24.963Z,3.23
2022-10-28T12:21:36.058Z,2.30
2022-10-28T12:24:47.359Z,2.70
2022-10-28T12:27:57.414Z,2.57
2022-10-28T12:31:06.503Z,2.43
2022-10-28T12:34:21.358Z,2.50
2022-10-28T12:37:34.221Z,1.63
2022-10-28T12:40:47.019Z,2.88
2022-10-28T12:43:57.600Z,1.80
2022-10-28T12:47:19.030Z,2.00
2022-10-28T12:50:34.841Z,1.90
2022-10-28T12:53:48.043Z,2.57
2022-10-28T12:57:01.359Z,2.30
2022-10-28T13:00:18.973Z,4.73
2022-10-28T13:03:26.026Z,2.10
2022-10-28T13:07:06.553Z,3.60
2022-10-28T13:10:27.531Z,2.10
2022-10-28T13:13:50.261Z,2.73
2022-10-28T13:17:22.806Z,3.97
2022-10-28T13:20:46.726Z,3.57
2022-10-28T13:24:01.143Z,2.27
2022-10-28T13:27:15.298Z,3.43
2022-10-28T13:30:24.066Z,2.10
2022-10-28T13:33:31.864Z,2.87
2022-10-28T13:36:42.965Z,4.60
2022-10-28T13:39:50.362Z,3.13
2022-10-28T13:43:00.441Z,2.63
2022-10-28T13:46:07.891Z,4.70
2022-10-28T13:49:26.427Z,3.47
2022-10-28T13:52:32.387Z,2.90
2022-10-28T13:55:46.925Z,4.17
2022-10-28T13:58:58.797Z,2.50
2022-10-28T14:02:36.255Z,2.07
2022-10-28T14:05:57.503Z,2.20
2022-10-28T14:09:06.363Z,3.40
2022-10-28T14:12:23.060Z,2.60
2022-10-28T14:15:35.099Z,2.50
2022-10-28T14:18:44.125Z,3.50
2022-10-28T14:22:03.984Z,3.37
2022-10-28T14:25:57.542Z,3.43
2022-10-28T14:29:04.195Z,4.03
2022-10-28T14:32:47.128Z,3.27
2022-10-28T14:36:19.057Z,2.40
2022-10-28T14:39:43.043Z,2.13
2022-10-28T14:43:06.851Z,3.50
2022-10-28T14:46:30.536Z,3.03
2022-10-28T14:49:41.733Z,3.50
2022-10-28T14:52:49.771Z,3.87
2022-10-28T14:56:10.863Z,2.77
2022-10-28T14:59:34.601Z,4.33
2022-10-28T15:02:41.341Z,4.07
2022-10-28T15:05:50.158Z,4.30
2022-10-28T15:08:57.673Z,3.27
2022-10-28T15:12:06.841Z,3.80
2022-10-28T15:15:20.346Z,3.30
2022-10-28T15:18:27.487Z,3.47
2022-10-28T15:21:36.717Z,3.90
2022-10-28T15:24:46.201Z,4.73
2022-10-28T15:27:55.433Z,3.47
2022-10-28T15:31:03.822Z,5.67
2022-10-28T15:34:23.760Z,4.30
2022-10-28T15:37:33.807Z,4.53
2022-10-28T15:40:40.394Z,3.97
2022-10-28T15:43:57.470Z,4.57
2022-10-28T15:47:10.559Z,3.90
2022-10-28T15:50:29.994Z,4.80
2022-10-28T15:53:42.128Z,3.97
2022-10-28T15:56:57.441Z,4.20
2022-10-28T16:00:23.005Z,5.87
2022-10-28T16:03:31.339Z,5.37
2022-10-28T16:06:40.220Z,5.57
2022-10-28T16:09:52.147Z,5.93
2022-10-28T16:12:58.919Z,6.47
2022-10-28T16:16:08.903Z,6.57
2022-10-28T16:19:30.610Z,5.87
2022-10-28T16:22:39.439Z,5.33
2022-10-28T16:25:48.727Z,7.77
2022-10-28T16:28:54.992Z,6.40
2022-10-28T16:32:03.593Z,7.87
2022-10-28T16:35:17.263Z,5.77
2022-10-28T16:38:23.832Z,6.17
2022-10-28T16:41:32.238Z,6.57
2022-10-28T16:44:39.374Z,6.17
2022-10-28T16:47:45.008Z,7.50
2022-10-28T16:50:54.101Z,6.37
2022-10-28T16:54:01.028Z,7.07
2022-10-28T16:57:11.517Z,7.97
2022-10-28T17:00:17.530Z,8.93
2022-10-28T17:03:24.447Z,7.57
2022-10-28T17:06:30.033Z,6.57
2022-10-28T17:09:36.887Z,8.37
2022-10-28T17:12:45.341Z,8.03
2022-10-28T17:15:55.744Z,5.67
2022-10-28T17:19:01.363Z,6.97
2022-10-28T17:22:10.307Z,5.93
2022-10-28T17:25:16.161Z,6.97
2022-10-28T17:28:25.620Z,8.33
2022-10-28T17:31:31.238Z,7.33
2022-10-28T17:34:37.729Z,6.50
2022-10-28T17:37:43.387Z,7.83
2022-10-28T17:40:57.130Z,7.77
2022-10-28T17:44:08.083Z,7.07
2022-10-28T17:47:15.122Z,6.87
2022-10-28T17:50:20.777Z,7.60
2022-10-28T17:53:27.324Z,7.90
2022-10-28T17:56:32.971Z,9.80
2022-10-28T17:59:42.169Z,7.27
2022-10-28T18:02:47.978Z,6.37
2022-10-28T18:05:54.972Z,7.33
2022-10-28T18:09:03.563Z,9.03
2022-10-28T18:12:11.832Z,9.00
2022-10-28T18:15:20.447Z,9.80
2022-10-28T18:18:29.072Z,9.30
2022-10-28T18:21:35.076Z,11.03
2022-10-28T18:24:41.524Z,9.87
2022-10-28T18:27:47.386Z,8.77
2022-10-28T18:30:56.642Z,8.43
2022-10-28T18:34:03.592Z,7.60
2022-10-28T18:37:11.964Z,7.43
2022-10-28T18:40:17.938Z,9.40
2022-10-28T18:43:24.769Z,8.17
2022-10-28T18:46:35.532Z,8.37
2022-10-28T18:49:41.986Z,10.63
2022-10-28T18:52:47.605Z,6.87
2022-10-28T18:55:54.618Z,9.40
2022-10-28T18:59:01.175Z,7.80
2022-10-28T19:02:12.076Z,8.23
2022-10-28T19:05:18.105Z,7.53
2022-10-28T19:08:24.564Z,8.27
2022-10-28T19:11:33.073Z,7.40
2022-10-28T19:14:39.797Z,8.50
2022-10-28T19:17:48.587Z,8.87
2022-10-28T19:20:57.360Z,7.93
2022-10-28T19:24:03.746Z,7.83
2022-10-28T19:27:10.543Z,8.20
2022-10-28T19:30:16.374Z,8.77
2022-10-28T19:33:25.757Z,9.90
2022-10-28T19:36:32.795Z,8.90
2022-10-28T19:39:39.249Z,6.77
2022-10-28T19:42:45.158Z,6.87
2022-10-28T19:45:51.953Z,6.80
2022-10-28T19:49:03.552Z,8.17
2022-10-28T19:52:10.148Z,8.67
2022-10-28T19:55:15.804Z,7.77
2022-10-28T19:58:22.328Z,8.53
2022-10-28T20:01:29.863Z,6.63
2022-10-28T20:04:39.682Z,5.57
2022-10-28T20:07:45.281Z,6.40
2022-10-28T20:11:00.625Z,6.80
2022-10-28T20:14:10.897Z,7.43
2022-10-28T20:17:17.728Z,7.80
2022-10-28T20:20:26.747Z,7.27
2022-10-28T20:23:33.444Z,6.30
2022-10-28T20:26:40.691Z,5.97
2022-10-28T20:29:47.185Z,8.67
2022-10-28T20:32:55.752Z,7.80
2022-10-28T20:36:06.781Z,8.03
2022-10-28T20:39:15.739Z,7.93
2022-10-28T20:42:22.219Z,9.47
2022-10-28T20:45:27.821Z,7.93
2022-10-28T20:48:34.486Z,7.83
2022-10-28T20:51:43.033Z,9.43
2022-10-28T20:54:49.514Z,9.77
2022-10-28T20:57:55.156Z,9.37
2022-10-28T21:01:06.519Z,10.97
2022-10-28T21:04:14.026Z,10.83
2022-10-28T21:07:23.219Z,8.73
2022-10-28T21:10:28.982Z,9.27
2022-10-28T21:13:35.939Z,8.70
2022-10-28T21:16:41.657Z,8.13
2022-10-28T21:19:48.190Z,9.90
2022-10-28T21:22:56.970Z,10.20
2022-10-28T21:26:06.292Z,11.93
2022-10-28T21:29:11.883Z,10.20
2022-10-28T21:32:18.383Z,10.70
2022-10-28T21:35:24.802Z,10.77
2022-10-28T21:38:37.465Z,8.27
2022-10-28T21:41:43.075Z,6.90
2022-10-28T21:44:49.529Z,8.10
2022-10-28T21:47:57.760Z,7.80
2022-10-28T21:51:09.878Z,8.53
2022-10-28T21:54:23.022Z,7.27
2022-10-28T21:57:33.064Z,8.07
2022-10-28T22:00:39.332Z,7.27
2022-10-28T22:03:46.003Z,8.40
2022-10-28T22:06:52.389Z,6.40
2022-10-28T22:10:03.854Z,7.17
2022-10-28T22:13:09.782Z,6.33
2022-10-28T22:16:17.706Z,6.13
2022-10-28T22:19:23.965Z,6.47
2022-10-28T22:22:31.432Z,7.23
2022-10-28T22:25:39.781Z,6.43
2022-10-28T22:28:46.469Z,6.73
2022-10-28T22:31:52.362Z,8.63
2022-10-28T22:34:58.803Z,7.20
2022-10-28T22:38:06.266Z,6.60
2022-10-28T22:41:20.585Z,8.13
2022-10-28T22:44:26.166Z,8.13
2022-10-28T22:47:32.635Z,8.53
2022-10-28T22:50:38.254Z,8.47
2022-10-28T22:53:45.058Z,5.27
2022-10-28T22:56:53.935Z,6.10
2022-10-28T23:00:00.364Z,6.50
2022-10-28T23:03:08.013Z,7.40
2022-10-28T23:06:15.887Z,5.67
2022-10-28T23:09:21.646Z,6.07
2022-10-28T23:12:30.990Z,5.83
2022-10-28T23:15:37.148Z,6.93
2022-10-28T23:18:45.220Z,6.50
2022-10-28T23:21:51.012Z,6.10
2022-10-28T23:24:57.984Z,7.27
2022-10-28T23:28:07.868Z,6.57
2022-10-28T23:31:17.480Z,6.20
2022-10-28T23:34:23.350Z,9.77
2022-10-28T23:37:29.992Z,6.83
2022-10-28T23:40:36.420Z,10.03
2022-10-28T23:43:45.785Z,9.27
2022-10-28T23:46:51.327Z,7.93
2022-10-28T23:49:57.793Z,7.60
2022-10-28T23:53:04.582Z,8.53
2022-10-28T23:56:11.279Z,6.77
2022-10-28T23:59:19.635Z,7.10
